sensor_id;sensor_type;location;lat;lon;timestamp;temperature;humidity
49042;DHT22;34859;51.608;11.462;2023-07-13T00:01:19;17.90;99.90
49042;DHT22;34859;51.608;11.462;2023-07-13T00:03:45;17.80;99.90
49042;DHT22;34859;51.608;11.462;2023-07-13T00:06:11;17.50;99.90
49042;DHT22;34859;51.608;11.462;2023-07-13T00:08:37;17.30;99.90
49042;DHT22;34859;51.608;11.462;2023-07-13T00:11:03;17.40;99.90
49042;DHT22;34859;51.608;11.462;2023-07-13T00:13:29;17.20;99.90
49042;DHT22;34859;51.608;11.462;2023-07-13T00:15:56;17.00;99.90
49042;DHT22;34859;51.608;11.462;2023-07-13T00:18:22;16.80;99.90
49042;DHT22;34859;51.608;11.462;2023-07-13T00:20:47;16.70;99.90
49042;DHT22;34859;51.608;11.462;2023-07-13T00:23:14;16.70;99.90
49042;DHT22;34859;51.608;11.462;2023-07-13T00:25:39;16.40;99.90
49042;DHT22;34859;51.608;11.462;2023-07-13T00:28:05;16.30;99.90
49042;DHT22;34859;51.608;11.462;2023-07-13T00:30:31;16.20;99.90
49042;DHT22;34859;51.608;11.462;2023-07-13T00:32:57;16.20;99.90
49042;DHT22;34859;51.608;11.462;2023-07-13T00:35:22;16.20;99.90
49042;DHT22;34859;51.608;11.462;2023-07-13T00:37:48;16.20;99.90
49042;DHT22;34859;51.608;11.462;2023-07-13T00:40:15;16.20;99.90
49042;DHT22;34859;51.608;11.462;2023-07-13T00:42:41;16.10;99.90
49042;DHT22;34859;51.608;11.462;2023-07-13T00:47:33;16.30;99.90
49042;DHT22;34859;51.608;11.462;2023-07-13T00:49:59;16.10;99.90
49042;DHT22;34859;51.608;11.462;2023-07-13T00:52:25;15.90;99.90
49042;DHT22;34859;51.608;11.462;2023-07-13T00:54:50;15.90;99.90
49042;DHT22;34859;51.608;11.462;2023-07-13T00:57:17;15.80;99.90
49042;DHT22;34859;51.608;11.462;2023-07-13T00:59:45;15.80;99.90
49042;DHT22;34859;51.608;11.462;2023-07-13T01:02:12;15.90;99.90
49042;DHT22;34859;51.608;11.462;2023-07-13T01:04:37;15.90;99.90
49042;DHT22;34859;51.608;11.462;2023-07-13T01:07:04;16.00;99.90
49042;DHT22;34859;51.608;11.462;2023-07-13T01:09:30;15.90;99.90
49042;DHT22;34859;51.608;11.462;2023-07-13T01:11:56;15.90;99.90
49042;DHT22;34859;51.608;11.462;2023-07-13T01:14:22;16.00;99.90
49042;DHT22;34859;51.608;11.462;2023-07-13T01:16:49;15.90;99.90
49042;DHT22;34859;51.608;11.462;2023-07-13T01:19:37;15.70;99.90
49042;DHT22;34859;51.608;11.462;2023-07-13T01:22:02;15.60;99.90
49042;DHT22;34859;51.608;11.462;2023-07-13T01:24:28;15.60;99.90
49042;DHT22;34859;51.608;11.462;2023-07-13T01:26:54;15.70;99.90
49042;DHT22;34859;51.608;11.462;2023-07-13T01:29:20;15.80;99.90
49042;DHT22;34859;51.608;11.462;2023-07-13T01:31:46;15.80;99.90
49042;DHT22;34859;51.608;11.462;2023-07-13T01:34:11;15.80;99.90
49042;DHT22;34859;51.608;11.462;2023-07-13T01:36:37;15.80;99.90
49042;DHT22;34859;51.608;11.462;2023-07-13T01:39:03;15.70;99.90
49042;DHT22;34859;51.608;11.462;2023-07-13T01:41:29;15.60;99.90
49042;DHT22;34859;51.608;11.462;2023-07-13T01:43:55;15.60;99.90
49042;DHT22;34859;51.608;11.462;2023-07-13T01:46:20;15.60;99.90
49042;DHT22;34859;51.608;11.462;2023-07-13T01:48:46;15.70;99.90
49042;DHT22;34859;51.608;11.462;2023-07-13T01:51:11;15.70;99.90
49042;DHT22;34859;51.608;11.462;2023-07-13T01:53:38;15.70;99.90
49042;DHT22;34859;51.608;11.462;2023-07-13T01:56:04;15.70;99.90
49042;DHT22;34859;51.608;11.462;2023-07-13T01:58:30;15.70;99.90
49042;DHT22;34859;51.608;11.462;2023-07-13T02:00:55;15.50;99.90
49042;DHT22;34859;51.608;11.462;2023-07-13T02:03:21;15.50;99.90
49042;DHT22;34859;51.608;11.462;2023-07-13T02:05:47;15.30;99.90
49042;DHT22;34859;51.608;11.462;2023-07-13T02:08:12;15.40;99.90
49042;DHT22;34859;51.608;11.462;2023-07-13T02:10:38;15.40;99.90
49042;DHT22;34859;51.608;11.462;2023-07-13T02:13:05;15.40;99.90
49042;DHT22;34859;51.608;11.462;2023-07-13T02:15:31;15.40;99.90
49042;DHT22;34859;51.608;11.462;2023-07-13T02:17:58;15.30;99.90
49042;DHT22;34859;51.608;11.462;2023-07-13T02:20:25;15.10;99.90
49042;DHT22;34859;51.608;11.462;2023-07-13T02:22:52;14.90;99.90
49042;DHT22;34859;51.608;11.462;2023-07-13T02:25:18;15.00;99.90
49042;DHT22;34859;51.608;11.462;2023-07-13T02:27:48;15.00;99.90
49042;DHT22;34859;51.608;11.462;2023-07-13T02:30:33;15.10;99.90
49042;DHT22;34859;51.608;11.462;2023-07-13T02:40:53;15.00;99.90
49042;DHT22;34859;51.608;11.462;2023-07-13T02:44:12;14.90;99.90
49042;DHT22;34859;51.608;11.462;2023-07-13T02:51:07;14.90;99.90
49042;DHT22;34859;51.608;11.462;2023-07-13T02:54:49;14.80;99.90
49042;DHT22;34859;51.608;11.462;2023-07-13T02:58:19;14.90;99.90
49042;DHT22;34859;51.608;11.462;2023-07-13T03:01:55;14.70;99.90
49042;DHT22;34859;51.608;11.462;2023-07-13T03:26:04;14.70;99.90
49042;DHT22;34859;51.608;11.462;2023-07-13T03:29:17;14.60;99.90
49042;DHT22;34859;51.608;11.462;2023-07-13T03:36:21;14.70;99.90
49042;DHT22;34859;51.608;11.462;2023-07-13T03:39:51;14.70;99.90
49042;DHT22;34859;51.608;11.462;2023-07-13T03:42:41;14.60;99.90
49042;DHT22;34859;51.608;11.462;2023-07-13T03:45:50;14.60;99.90
49042;DHT22;34859;51.608;11.462;2023-07-13T03:48:41;14.70;99.90
49042;DHT22;34859;51.608;11.462;2023-07-13T03:51:15;14.70;99.90
49042;DHT22;34859;51.608;11.462;2023-07-13T03:53:43;14.70;99.90
49042;DHT22;34859;51.608;11.462;2023-07-13T03:59:43;14.70;99.90
49042;DHT22;34859;51.608;11.462;2023-07-13T04:13:18;14.70;99.90
49042;DHT22;34859;51.608;11.462;2023-07-13T04:23:33;14.80;99.90
49042;DHT22;34859;51.608;11.462;2023-07-13T04:26:58;14.80;99.90
49042;DHT22;34859;51.608;11.462;2023-07-13T04:30:24;14.80;99.90
49042;DHT22;34859;51.608;11.462;2023-07-13T04:44:27;15.10;99.90
49042;DHT22;34859;51.608;11.462;2023-07-13T04:54:02;15.20;99.90
49042;DHT22;34859;51.608;11.462;2023-07-13T04:56:52;15.30;99.90
49042;DHT22;34859;51.608;11.462;2023-07-13T04:59:20;15.40;99.90
49042;DHT22;34859;51.608;11.462;2023-07-13T05:02:33;15.50;99.90
49042;DHT22;34859;51.608;11.462;2023-07-13T05:04:59;15.50;99.90
49042;DHT22;34859;51.608;11.462;2023-07-13T05:07:26;15.60;99.90
49042;DHT22;34859;51.608;11.462;2023-07-13T05:09:52;15.70;99.90
49042;DHT22;34859;51.608;11.462;2023-07-13T05:12:20;15.70;99.90
49042;DHT22;34859;51.608;11.462;2023-07-13T05:14:46;15.70;99.90
49042;DHT22;34859;51.608;11.462;2023-07-13T05:17:14;15.80;99.90
49042;DHT22;34859;51.608;11.462;2023-07-13T05:19:39;15.80;99.90
49042;DHT22;34859;51.608;11.462;2023-07-13T05:22:05;16.00;99.90
49042;DHT22;34859;51.608;11.462;2023-07-13T05:24:31;16.10;99.90
49042;DHT22;34859;51.608;11.462;2023-07-13T05:26:56;16.10;99.90
49042;DHT22;34859;51.608;11.462;2023-07-13T05:29:22;16.20;99.90
49042;DHT22;34859;51.608;11.462;2023-07-13T05:31:49;16.30;99.90
49042;DHT22;34859;51.608;11.462;2023-07-13T05:34:14;16.40;99.90
49042;DHT22;34859;51.608;11.462;2023-07-13T05:36:41;16.50;99.90
49042;DHT22;34859;51.608;11.462;2023-07-13T05:39:07;16.60;99.90
49042;DHT22;34859;51.608;11.462;2023-07-13T05:41:32;16.60;99.90
49042;DHT22;34859;51.608;11.462;2023-07-13T05:43:58;16.70;99.90
49042;DHT22;34859;51.608;11.462;2023-07-13T05:46:24;16.80;99.90
49042;DHT22;34859;51.608;11.462;2023-07-13T05:48:50;17.00;99.90
49042;DHT22;34859;51.608;11.462;2023-07-13T05:51:15;17.00;99.90
49042;DHT22;34859;51.608;11.462;2023-07-13T05:53:41;17.00;99.90
49042;DHT22;34859;51.608;11.462;2023-07-13T05:56:06;17.00;99.90
49042;DHT22;34859;51.608;11.462;2023-07-13T05:58:32;17.00;99.90
49042;DHT22;34859;51.608;11.462;2023-07-13T06:00:59;17.10;99.90
49042;DHT22;34859;51.608;11.462;2023-07-13T06:03:25;17.20;99.90
49042;DHT22;34859;51.608;11.462;2023-07-13T06:05:51;17.40;99.90
49042;DHT22;34859;51.608;11.462;2023-07-13T06:08:17;17.50;99.90
49042;DHT22;34859;51.608;11.462;2023-07-13T06:10:42;17.60;99.90
49042;DHT22;34859;51.608;11.462;2023-07-13T06:13:08;17.70;99.90
49042;DHT22;34859;51.608;11.462;2023-07-13T06:15:34;17.90;99.90
49042;DHT22;34859;51.608;11.462;2023-07-13T06:17:59;18.10;99.90
49042;DHT22;34859;51.608;11.462;2023-07-13T06:20:28;18.20;99.90
49042;DHT22;34859;51.608;11.462;2023-07-13T06:22:54;18.30;99.90
49042;DHT22;34859;51.608;11.462;2023-07-13T06:25:20;18.40;99.90
49042;DHT22;34859;51.608;11.462;2023-07-13T06:27:47;18.40;99.90
49042;DHT22;34859;51.608;11.462;2023-07-13T06:30:12;18.50;99.90
49042;DHT22;34859;51.608;11.462;2023-07-13T06:32:38;18.60;99.90
49042;DHT22;34859;51.608;11.462;2023-07-13T06:35:04;18.70;99.90
49042;DHT22;34859;51.608;11.462;2023-07-13T06:37:30;18.90;99.90
49042;DHT22;34859;51.608;11.462;2023-07-13T06:39:57;19.10;99.90
49042;DHT22;34859;51.608;11.462;2023-07-13T06:42:22;19.30;99.90
49042;DHT22;34859;51.608;11.462;2023-07-13T06:44:48;19.30;99.90
49042;DHT22;34859;51.608;11.462;2023-07-13T06:47:13;19.30;99.90
49042;DHT22;34859;51.608;11.462;2023-07-13T06:49:39;19.20;99.90
49042;DHT22;34859;51.608;11.462;2023-07-13T06:52:05;19.30;99.90
49042;DHT22;34859;51.608;11.462;2023-07-13T06:54:31;19.40;99.90
49042;DHT22;34859;51.608;11.462;2023-07-13T06:56:57;19.50;99.90
49042;DHT22;34859;51.608;11.462;2023-07-13T06:59:23;19.70;99.90
49042;DHT22;34859;51.608;11.462;2023-07-13T07:01:49;19.80;99.90
49042;DHT22;34859;51.608;11.462;2023-07-13T07:04:14;19.90;99.90
49042;DHT22;34859;51.608;11.462;2023-07-13T07:06:40;20.00;99.90
49042;DHT22;34859;51.608;11.462;2023-07-13T07:09:09;20.10;99.90
49042;DHT22;34859;51.608;11.462;2023-07-13T07:11:37;20.30;99.90
49042;DHT22;34859;51.608;11.462;2023-07-13T07:14:02;20.40;99.90
49042;DHT22;34859;51.608;11.462;2023-07-13T07:16:28;20.60;99.90
49042;DHT22;34859;51.608;11.462;2023-07-13T07:18:54;20.60;99.90
49042;DHT22;34859;51.608;11.462;2023-07-13T07:21:20;20.70;99.90
49042;DHT22;34859;51.608;11.462;2023-07-13T07:23:48;20.80;99.90
49042;DHT22;34859;51.608;11.462;2023-07-13T07:26:14;20.80;99.90
49042;DHT22;34859;51.608;11.462;2023-07-13T07:28:58;20.80;99.90
49042;DHT22;34859;51.608;11.462;2023-07-13T07:31:42;20.90;99.90
49042;DHT22;34859;51.608;11.462;2023-07-13T07:34:08;20.90;99.90
49042;DHT22;34859;51.608;11.462;2023-07-13T07:36:34;20.90;99.90
49042;DHT22;34859;51.608;11.462;2023-07-13T07:38:59;21.00;99.90
49042;DHT22;34859;51.608;11.462;2023-07-13T07:41:25;21.10;99.90
49042;DHT22;34859;51.608;11.462;2023-07-13T07:43:50;21.10;99.90
49042;DHT22;34859;51.608;11.462;2023-07-13T07:46:17;21.20;99.90
49042;DHT22;34859;51.608;11.462;2023-07-13T07:48:42;21.20;99.90
49042;DHT22;34859;51.608;11.462;2023-07-13T07:51:08;21.20;99.90
49042;DHT22;34859;51.608;11.462;2023-07-13T07:53:33;21.20;99.90
49042;DHT22;34859;51.608;11.462;2023-07-13T07:55:59;21.30;99.90
49042;DHT22;34859;51.608;11.462;2023-07-13T07:58:24;21.30;99.90
49042;DHT22;34859;51.608;11.462;2023-07-13T08:00:50;21.20;99.90
49042;DHT22;34859;51.608;11.462;2023-07-13T08:03:18;21.10;99.90
49042;DHT22;34859;51.608;11.462;2023-07-13T08:05:43;21.00;99.90
49042;DHT22;34859;51.608;11.462;2023-07-13T08:08:09;21.00;99.90
49042;DHT22;34859;51.608;11.462;2023-07-13T08:10:35;21.10;99.90
49042;DHT22;34859;51.608;11.462;2023-07-13T08:13:02;21.00;99.90
49042;DHT22;34859;51.608;11.462;2023-07-13T08:15:28;21.10;99.90
49042;DHT22;34859;51.608;11.462;2023-07-13T08:17:53;21.00;99.90
49042;DHT22;34859;51.608;11.462;2023-07-13T08:20:20;21.00;99.90
49042;DHT22;34859;51.608;11.462;2023-07-13T08:22:47;21.00;99.90
49042;DHT22;34859;51.608;11.462;2023-07-13T08:25:12;21.00;99.90
49042;DHT22;34859;51.608;11.462;2023-07-13T08:27:38;21.20;99.90
49042;DHT22;34859;51.608;11.462;2023-07-13T08:30:04;21.30;99.90
49042;DHT22;34859;51.608;11.462;2023-07-13T08:32:31;21.30;99.90
49042;DHT22;34859;51.608;11.462;2023-07-13T08:34:57;21.20;99.90
49042;DHT22;34859;51.608;11.462;2023-07-13T08:37:22;21.30;99.90
49042;DHT22;34859;51.608;11.462;2023-07-13T08:39:48;21.20;99.90
49042;DHT22;34859;51.608;11.462;2023-07-13T08:47:23;21.50;99.90
49042;DHT22;34859;51.608;11.462;2023-07-13T08:49:49;21.50;99.90
49042;DHT22;34859;51.608;11.462;2023-07-13T08:52:38;21.70;99.90
49042;DHT22;34859;51.608;11.462;2023-07-13T08:57:37;21.90;99.90
49042;DHT22;34859;51.608;11.462;2023-07-13T09:00:03;22.00;99.90
49042;DHT22;34859;51.608;11.462;2023-07-13T09:02:39;22.10;99.90
49042;DHT22;34859;51.608;11.462;2023-07-13T09:05:12;22.30;99.90
49042;DHT22;34859;51.608;11.462;2023-07-13T09:10:28;22.00;99.90
49042;DHT22;34859;51.608;11.462;2023-07-13T09:15:34;22.30;99.90
49042;DHT22;34859;51.608;11.462;2023-07-13T09:18:06;22.50;99.90
49042;DHT22;34859;51.608;11.462;2023-07-13T09:20:37;22.50;99.90
49042;DHT22;34859;51.608;11.462;2023-07-13T09:23:09;22.40;99.60
49042;DHT22;34859;51.608;11.462;2023-07-13T09:25:37;22.00;99.70
49042;DHT22;34859;51.608;11.462;2023-07-13T09:28:24;21.90;99.90
49042;DHT22;34859;51.608;11.462;2023-07-13T09:33:19;22.10;99.30
49042;DHT22;34859;51.608;11.462;2023-07-13T09:35:45;22.20;99.30
49042;DHT22;34859;51.608;11.462;2023-07-13T09:38:11;22.30;99.00
49042;DHT22;34859;51.608;11.462;2023-07-13T09:43:03;22.70;98.20
49042;DHT22;34859;51.608;11.462;2023-07-13T09:45:32;22.80;97.60
49042;DHT22;34859;51.608;11.462;2023-07-13T09:47:59;22.90;97.40
49042;DHT22;34859;51.608;11.462;2023-07-13T09:50:25;23.10;97.40
49042;DHT22;34859;51.608;11.462;2023-07-13T09:53:09;23.10;96.50
49042;DHT22;34859;51.608;11.462;2023-07-13T09:55:38;23.00;95.90
49042;DHT22;34859;51.608;11.462;2023-07-13T09:58:04;23.10;95.90
49042;DHT22;34859;51.608;11.462;2023-07-13T10:00:32;22.90;96.50
49042;DHT22;34859;51.608;11.462;2023-07-13T10:03:05;22.70;96.10
49042;DHT22;34859;51.608;11.462;2023-07-13T10:05:38;22.70;96.00
49042;DHT22;34859;51.608;11.462;2023-07-13T10:08:05;23.00;95.40
49042;DHT22;34859;51.608;11.462;2023-07-13T10:10:32;23.30;95.50
49042;DHT22;34859;51.608;11.462;2023-07-13T10:13:01;23.30;96.20
49042;DHT22;34859;51.608;11.462;2023-07-13T10:15:28;23.10;94.90
49042;DHT22;34859;51.608;11.462;2023-07-13T10:17:54;23.00;96.70
49042;DHT22;34859;51.608;11.462;2023-07-13T10:20:21;23.00;96.60
49042;DHT22;34859;51.608;11.462;2023-07-13T10:23:00;23.00;96.30
49042;DHT22;34859;51.608;11.462;2023-07-13T10:25:29;23.00;95.40
49042;DHT22;34859;51.608;11.462;2023-07-13T10:28:04;22.80;95.00
49042;DHT22;34859;51.608;11.462;2023-07-13T10:30:32;23.00;96.20
49042;DHT22;34859;51.608;11.462;2023-07-13T10:33:01;23.30;94.10
49042;DHT22;34859;51.608;11.462;2023-07-13T10:35:28;23.50;94.80
49042;DHT22;34859;51.608;11.462;2023-07-13T10:40:25;23.70;93.80
49042;DHT22;34859;51.608;11.462;2023-07-13T10:42:52;23.50;93.30
49042;DHT22;34859;51.608;11.462;2023-07-13T10:45:20;23.50;93.50
49042;DHT22;34859;51.608;11.462;2023-07-13T10:47:50;23.60;94.20
49042;DHT22;34859;51.608;11.462;2023-07-13T10:50:19;23.60;93.70
49042;DHT22;34859;51.608;11.462;2023-07-13T10:52:48;23.80;94.80
49042;DHT22;34859;51.608;11.462;2023-07-13T10:58:02;24.00;93.10
49042;DHT22;34859;51.608;11.462;2023-07-13T11:00:32;24.30;93.30
49042;DHT22;34859;51.608;11.462;2023-07-13T11:03:00;24.30;93.40
49042;DHT22;34859;51.608;11.462;2023-07-13T11:05:32;24.30;93.30
49042;DHT22;34859;51.608;11.462;2023-07-13T11:11:02;24.00;93.00
49042;DHT22;34859;51.608;11.462;2023-07-13T11:18:45;23.80;93.30
49042;DHT22;34859;51.608;11.462;2023-07-13T11:21:20;23.80;92.80
49042;DHT22;34859;51.608;11.462;2023-07-13T11:26:59;23.50;93.10
49042;DHT22;34859;51.608;11.462;2023-07-13T11:29:44;23.50;92.40
49042;DHT22;34859;51.608;11.462;2023-07-13T11:32:30;23.70;93.70
49042;DHT22;34859;51.608;11.462;2023-07-13T11:34:57;23.50;93.30
49042;DHT22;34859;51.608;11.462;2023-07-13T11:37:23;23.50;93.40
49042;DHT22;34859;51.608;11.462;2023-07-13T11:39:50;23.80;93.10
49042;DHT22;34859;51.608;11.462;2023-07-13T11:42:17;24.10;93.20
49042;DHT22;34859;51.608;11.462;2023-07-13T11:44:46;24.10;92.20
49042;DHT22;34859;51.608;11.462;2023-07-13T11:47:20;24.10;92.10
49042;DHT22;34859;51.608;11.462;2023-07-13T11:49:52;24.20;91.90
49042;DHT22;34859;51.608;11.462;2023-07-13T11:52:19;24.10;92.40
49042;DHT22;34859;51.608;11.462;2023-07-13T11:57:33;24.10;92.20
49042;DHT22;34859;51.608;11.462;2023-07-13T12:00:02;24.00;91.60
49042;DHT22;34859;51.608;11.462;2023-07-13T12:02:41;23.60;91.90
49042;DHT22;34859;51.608;11.462;2023-07-13T12:05:10;23.40;92.50
49042;DHT22;34859;51.608;11.462;2023-07-13T12:07:38;23.40;92.90
49042;DHT22;34859;51.608;11.462;2023-07-13T12:13:01;23.80;92.80
49042;DHT22;34859;51.608;11.462;2023-07-13T12:15:38;24.10;92.50
49042;DHT22;34859;51.608;11.462;2023-07-13T12:18:20;24.30;92.10
49042;DHT22;34859;51.608;11.462;2023-07-13T12:20:47;24.10;92.10
49042;DHT22;34859;51.608;11.462;2023-07-13T12:25:48;23.90;93.20
49042;DHT22;34859;51.608;11.462;2023-07-13T12:28:20;23.90;92.70
49042;DHT22;34859;51.608;11.462;2023-07-13T12:30:48;24.00;91.50
49042;DHT22;34859;51.608;11.462;2023-07-13T12:33:14;24.00;92.30
49042;DHT22;34859;51.608;11.462;2023-07-13T12:35:40;24.20;93.00
49042;DHT22;34859;51.608;11.462;2023-07-13T12:38:10;24.30;91.90
49042;DHT22;34859;51.608;11.462;2023-07-13T12:40:37;24.40;91.10
49042;DHT22;34859;51.608;11.462;2023-07-13T12:43:03;24.50;91.90
49042;DHT22;34859;51.608;11.462;2023-07-13T12:45:30;24.60;91.80
49042;DHT22;34859;51.608;11.462;2023-07-13T12:47:58;24.60;91.40
49042;DHT22;34859;51.608;11.462;2023-07-13T12:50:36;24.40;90.40
49042;DHT22;34859;51.608;11.462;2023-07-13T12:53:02;24.10;91.30
49042;DHT22;34859;51.608;11.462;2023-07-13T12:55:29;24.10;91.60
49042;DHT22;34859;51.608;11.462;2023-07-13T12:58:32;24.50;91.50
49042;DHT22;34859;51.608;11.462;2023-07-13T13:01:01;24.40;91.20
49042;DHT22;34859;51.608;11.462;2023-07-13T13:05:57;23.90;91.30
49042;DHT22;34859;51.608;11.462;2023-07-13T13:08:22;23.80;91.70
49042;DHT22;34859;51.608;11.462;2023-07-13T13:10:48;23.70;91.40
49042;DHT22;34859;51.608;11.462;2023-07-13T13:13:14;23.70;91.80
49042;DHT22;34859;51.608;11.462;2023-07-13T13:15:40;23.80;91.70
49042;DHT22;34859;51.608;11.462;2023-07-13T13:18:17;23.80;91.40
49042;DHT22;34859;51.608;11.462;2023-07-13T13:20:43;23.90;91.80
49042;DHT22;34859;51.608;11.462;2023-07-13T13:23:12;24.20;90.40
49042;DHT22;34859;51.608;11.462;2023-07-13T13:25:46;24.50;91.00
49042;DHT22;34859;51.608;11.462;2023-07-13T13:28:17;24.50;90.10
49042;DHT22;34859;51.608;11.462;2023-07-13T13:30:43;24.40;91.40
49042;DHT22;34859;51.608;11.462;2023-07-13T13:33:13;24.50;90.10
49042;DHT22;34859;51.608;11.462;2023-07-13T13:35:39;24.50;90.40
49042;DHT22;34859;51.608;11.462;2023-07-13T13:38:10;24.70;90.70
49042;DHT22;34859;51.608;11.462;2023-07-13T13:40:37;24.90;90.50
49042;DHT22;34859;51.608;11.462;2023-07-13T13:43:04;24.90;90.80
49042;DHT22;34859;51.608;11.462;2023-07-13T13:45:34;24.90;87.30
49042;DHT22;34859;51.608;11.462;2023-07-13T13:47:59;24.90;89.00
49042;DHT22;34859;51.608;11.462;2023-07-13T13:50:29;24.80;88.60
49042;DHT22;34859;51.608;11.462;2023-07-13T13:52:57;24.60;87.50
49042;DHT22;34859;51.608;11.462;2023-07-13T13:55:22;24.50;88.30
49042;DHT22;34859;51.608;11.462;2023-07-13T13:57:50;24.30;90.00
49042;DHT22;34859;51.608;11.462;2023-07-13T14:00:17;24.20;89.60
49042;DHT22;34859;51.608;11.462;2023-07-13T14:02:46;24.10;90.00
49042;DHT22;34859;51.608;11.462;2023-07-13T14:05:13;24.00;89.60
49042;DHT22;34859;51.608;11.462;2023-07-13T14:07:40;24.00;90.00
49042;DHT22;34859;51.608;11.462;2023-07-13T14:10:25;24.10;90.70
49042;DHT22;34859;51.608;11.462;2023-07-13T14:12:52;24.50;90.10
49042;DHT22;34859;51.608;11.462;2023-07-13T14:15:22;24.60;89.30
49042;DHT22;34859;51.608;11.462;2023-07-13T14:17:50;24.40;91.20
49042;DHT22;34859;51.608;11.462;2023-07-13T14:20:18;24.10;90.20
49042;DHT22;34859;51.608;11.462;2023-07-13T14:22:43;24.00;90.70
49042;DHT22;34859;51.608;11.462;2023-07-13T14:25:22;23.80;90.80
49042;DHT22;34859;51.608;11.462;2023-07-13T14:27:49;23.70;90.90
49042;DHT22;34859;51.608;11.462;2023-07-13T14:30:20;23.70;90.70
49042;DHT22;34859;51.608;11.462;2023-07-13T14:32:47;23.80;91.00
49042;DHT22;34859;51.608;11.462;2023-07-13T14:35:15;23.90;91.20
49042;DHT22;34859;51.608;11.462;2023-07-13T14:37:40;23.90;91.50
49042;DHT22;34859;51.608;11.462;2023-07-13T14:40:17;24.00;91.40
49042;DHT22;34859;51.608;11.462;2023-07-13T14:42:43;24.00;91.00
49042;DHT22;34859;51.608;11.462;2023-07-13T14:45:12;24.00;91.10
49042;DHT22;34859;51.608;11.462;2023-07-13T14:47:45;24.30;91.80
49042;DHT22;34859;51.608;11.462;2023-07-13T14:50:31;24.40;90.90
49042;DHT22;34859;51.608;11.462;2023-07-13T14:52:57;24.40;91.80
49042;DHT22;34859;51.608;11.462;2023-07-13T14:55:23;24.30;91.80
49042;DHT22;34859;51.608;11.462;2023-07-13T14:57:51;24.30;91.10
49042;DHT22;34859;51.608;11.462;2023-07-13T15:00:18;24.40;90.70
49042;DHT22;34859;51.608;11.462;2023-07-13T15:02:45;24.60;90.90
49042;DHT22;34859;51.608;11.462;2023-07-13T15:05:13;24.50;91.00
49042;DHT22;34859;51.608;11.462;2023-07-13T15:07:41;24.60;91.50
49042;DHT22;34859;51.608;11.462;2023-07-13T15:10:13;24.60;90.90
49042;DHT22;34859;51.608;11.462;2023-07-13T15:12:39;24.50;90.80
49042;DHT22;34859;51.608;11.462;2023-07-13T15:15:05;24.20;90.60
49042;DHT22;34859;51.608;11.462;2023-07-13T15:17:37;24.10;91.00
49042;DHT22;34859;51.608;11.462;2023-07-13T15:20:04;24.00;90.90
49042;DHT22;34859;51.608;11.462;2023-07-13T15:22:31;23.90;91.10
49042;DHT22;34859;51.608;11.462;2023-07-13T15:24:58;23.90;91.40
49042;DHT22;34859;51.608;11.462;2023-07-13T15:27:28;23.90;91.10
49042;DHT22;34859;51.608;11.462;2023-07-13T15:29:53;23.90;90.20
49042;DHT22;34859;51.608;11.462;2023-07-13T15:32:19;23.80;90.70
49042;DHT22;34859;51.608;11.462;2023-07-13T15:34:45;23.80;90.70
49042;DHT22;34859;51.608;11.462;2023-07-13T15:37:15;23.70;90.40
49042;DHT22;34859;51.608;11.462;2023-07-13T15:39:41;23.80;90.90
49042;DHT22;34859;51.608;11.462;2023-07-13T15:42:13;23.80;90.40
49042;DHT22;34859;51.608;11.462;2023-07-13T15:44:39;23.90;91.60
49042;DHT22;34859;51.608;11.462;2023-07-13T15:47:13;23.80;92.20
49042;DHT22;34859;51.608;11.462;2023-07-13T15:49:40;23.70;91.80
49042;DHT22;34859;51.608;11.462;2023-07-13T15:52:22;23.70;91.60
49042;DHT22;34859;51.608;11.462;2023-07-13T15:54:49;23.70;91.20
49042;DHT22;34859;51.608;11.462;2023-07-13T15:57:14;23.60;91.20
49042;DHT22;34859;51.608;11.462;2023-07-13T15:59:41;23.60;91.20
49042;DHT22;34859;51.608;11.462;2023-07-13T16:02:16;23.50;91.60
49042;DHT22;34859;51.608;11.462;2023-07-13T16:04:42;23.50;91.40
49042;DHT22;34859;51.608;11.462;2023-07-13T16:07:11;23.70;91.20
49042;DHT22;34859;51.608;11.462;2023-07-13T16:09:38;23.80;91.80
49042;DHT22;34859;51.608;11.462;2023-07-13T16:12:08;23.80;91.70
49042;DHT22;34859;51.608;11.462;2023-07-13T16:14:34;23.80;91.30
49042;DHT22;34859;51.608;11.462;2023-07-13T16:17:00;23.90;91.40
49042;DHT22;34859;51.608;11.462;2023-07-13T16:19:28;23.80;92.50
49042;DHT22;34859;51.608;11.462;2023-07-13T16:21:55;23.70;91.90
49042;DHT22;34859;51.608;11.462;2023-07-13T16:24:21;23.70;91.50
49042;DHT22;34859;51.608;11.462;2023-07-13T16:26:48;23.60;92.40
49042;DHT22;34859;51.608;11.462;2023-07-13T16:29:27;23.60;92.10
49042;DHT22;34859;51.608;11.462;2023-07-13T16:32:05;23.70;92.90
49042;DHT22;34859;51.608;11.462;2023-07-13T16:34:36;23.70;91.60
49042;DHT22;34859;51.608;11.462;2023-07-13T16:37:03;23.60;91.40
49042;DHT22;34859;51.608;11.462;2023-07-13T16:39:30;23.50;92.00
49042;DHT22;34859;51.608;11.462;2023-07-13T16:41:58;23.40;91.40
49042;DHT22;34859;51.608;11.462;2023-07-13T16:44:24;23.50;92.10
49042;DHT22;34859;51.608;11.462;2023-07-13T16:46:52;23.40;91.30
49042;DHT22;34859;51.608;11.462;2023-07-13T16:51:54;23.40;91.60
49042;DHT22;34859;51.608;11.462;2023-07-13T16:54:21;23.50;91.60
49042;DHT22;34859;51.608;11.462;2023-07-13T16:56:47;23.60;92.60
49042;DHT22;34859;51.608;11.462;2023-07-13T16:59:16;23.60;91.90
49042;DHT22;34859;51.608;11.462;2023-07-13T17:01:43;23.50;91.80
49042;DHT22;34859;51.608;11.462;2023-07-13T17:04:09;23.40;92.20
49042;DHT22;34859;51.608;11.462;2023-07-13T17:06:37;23.40;93.10
49042;DHT22;34859;51.608;11.462;2023-07-13T17:09:04;23.40;92.40
49042;DHT22;34859;51.608;11.462;2023-07-13T17:11:32;23.50;92.20
49042;DHT22;34859;51.608;11.462;2023-07-13T17:13:58;23.50;92.10
49042;DHT22;34859;51.608;11.462;2023-07-13T17:16:23;23.50;92.20
49042;DHT22;34859;51.608;11.462;2023-07-13T17:18:50;23.50;91.70
49042;DHT22;34859;51.608;11.462;2023-07-13T17:21:17;23.50;93.10
49042;DHT22;34859;51.608;11.462;2023-07-13T17:24:04;23.10;94.50
49042;DHT22;34859;51.608;11.462;2023-07-13T17:26:49;22.40;95.30
49042;DHT22;34859;51.608;11.462;2023-07-13T17:29:36;22.00;96.40
49042;DHT22;34859;51.608;11.462;2023-07-13T17:32:22;21.60;97.00
49042;DHT22;34859;51.608;11.462;2023-07-13T17:34:48;21.10;98.00
49042;DHT22;34859;51.608;11.462;2023-07-13T17:37:17;20.70;98.90
49042;DHT22;34859;51.608;11.462;2023-07-13T17:39:43;20.60;99.40
49042;DHT22;34859;51.608;11.462;2023-07-13T17:42:09;20.40;99.80